sensor_id;sensor_type;location;lat;lon;timestamp;pressure;altitude;pressure_sealevel;temperature;humidity
25855;BME280;13680;49.936;11.344;2023-02-22T00:01:51;96731.03;;;6.25;77.90
25855;BME280;13680;49.936;11.344;2023-02-22T00:04:38;96735.31;;;6.16;77.68
25855;BME280;13680;49.936;11.344;2023-02-22T00:07:06;96731.59;;;6.12;77.96
25855;BME280;13680;49.936;11.344;2023-02-22T00:09:32;96727.31;;;6.05;77.98
25855;BME280;13680;49.936;11.344;2023-02-22T00:11:57;96727.88;;;6.02;77.83
25855;BME280;13680;49.936;11.344;2023-02-22T00:14:23;96726.56;;;6.00;78.30
25855;BME280;13680;49.936;11.344;2023-02-22T00:16:52;96721.47;;;5.98;77.96
25855;BME280;13680;49.936;11.344;2023-02-22T00:19:18;96720.94;;;5.91;77.96
25855;BME280;13680;49.936;11.344;2023-02-22T00:21:43;96716.66;;;5.90;77.95
25855;BME280;13680;49.936;11.344;2023-02-22T00:24:09;96712.94;;;5.86;77.58
25855;BME280;13680;49.936;11.344;2023-02-22T00:26:49;96717.75;;;5.79;77.49
25855;BME280;13680;49.936;11.344;2023-02-22T00:29:15;96720.69;;;5.72;77.85
25855;BME280;13680;49.936;11.344;2023-02-22T00:31:40;96720.97;;;5.70;77.46
25855;BME280;13680;49.936;11.344;2023-02-22T00:34:06;96720.69;;;5.67;77.55
25855;BME280;13680;49.936;11.344;2023-02-22T00:36:31;96722.31;;;5.63;77.78
25855;BME280;13680;49.936;11.344;2023-02-22T00:38:57;96725.75;;;5.63;77.94
25855;BME280;13680;49.936;11.344;2023-02-22T00:41:22;96720.44;;;5.58;77.59
25855;BME280;13680;49.936;11.344;2023-02-22T00:43:47;96720.69;;;5.51;77.58
25855;BME280;13680;49.936;11.344;2023-02-22T00:46:13;96723.63;;;5.50;77.76
25855;BME280;13680;49.936;11.344;2023-02-22T00:48:39;96725.78;;;5.43;77.78
25855;BME280;13680;49.936;11.344;2023-02-22T00:51:04;96715.88;;;5.43;77.47
25855;BME280;13680;49.936;11.344;2023-02-22T00:53:30;96717.78;;;5.37;77.76
25855;BME280;13680;49.936;11.344;2023-02-22T00:55:55;96715.38;;;5.36;77.64
25855;BME280;13680;49.936;11.344;2023-02-22T00:58:21;96714.03;;;5.33;77.35
25855;BME280;13680;49.936;11.344;2023-02-22T01:00:48;96716.72;;;5.28;77.59
25855;BME280;13680;49.936;11.344;2023-02-22T01:03:17;96707.63;;;5.24;77.83
25855;BME280;13680;49.936;11.344;2023-02-22T01:05:43;96703.09;;;5.19;77.59
25855;BME280;13680;49.936;11.344;2023-02-22T01:08:11;96707.09;;;5.17;77.31
25855;BME280;13680;49.936;11.344;2023-02-22T01:10:37;96708.16;;;5.11;77.43
25855;BME280;13680;49.936;11.344;2023-02-22T01:13:04;96706.00;;;5.07;78.33
25855;BME280;13680;49.936;11.344;2023-02-22T01:15:33;96704.44;;;5.06;77.87
25855;BME280;13680;49.936;11.344;2023-02-22T01:17:59;96704.94;;;5.03;78.25
25855;BME280;13680;49.936;11.344;2023-02-22T01:20:28;96696.16;;;5.03;78.17
25855;BME280;13680;49.936;11.344;2023-02-22T01:22:56;96706.25;;;4.90;78.39
25855;BME280;13680;49.936;11.344;2023-02-22T01:25:27;96700.13;;;4.90;78.29
25855;BME280;13680;49.936;11.344;2023-02-22T01:27:54;96691.06;;;4.91;78.47
25855;BME280;13680;49.936;11.344;2023-02-22T01:30:25;96691.59;;;4.88;78.05
25855;BME280;13680;49.936;11.344;2023-02-22T01:32:51;96688.13;;;4.87;78.46
25855;BME280;13680;49.936;11.344;2023-02-22T01:35:20;96685.19;;;4.84;78.40
25855;BME280;13680;49.936;11.344;2023-02-22T01:37:46;96686.25;;;4.78;78.27
25855;BME280;13680;49.936;11.344;2023-02-22T01:40:21;96688.91;;;4.78;78.38
25855;BME280;13680;49.936;11.344;2023-02-22T01:42:50;96681.44;;;4.74;78.46
25855;BME280;13680;49.936;11.344;2023-02-22T01:50:28;96679.84;;;4.63;77.90
25855;BME280;13680;49.936;11.344;2023-02-22T01:52:54;96674.50;;;4.58;77.69
25855;BME280;13680;49.936;11.344;2023-02-22T01:55:19;96675.56;;;4.57;77.88
25855;BME280;13680;49.936;11.344;2023-02-22T01:57:46;96679.78;;;4.53;77.83
25855;BME280;13680;49.936;11.344;2023-02-22T02:00:15;96666.22;;;4.49;77.90
25855;BME280;13680;49.936;11.344;2023-02-22T02:02:48;96662.72;;;4.49;77.89
25855;BME280;13680;49.936;11.344;2023-02-22T02:05:15;96661.94;;;4.48;77.98
25855;BME280;13680;49.936;11.344;2023-02-22T02:07:42;96665.38;;;4.43;77.88
25855;BME280;13680;49.936;11.344;2023-02-22T02:10:12;96662.19;;;4.41;77.98
25855;BME280;13680;49.936;11.344;2023-02-22T02:12:40;96667.75;;;4.40;77.94
25855;BME280;13680;49.936;11.344;2023-02-22T02:15:26;96665.09;;;4.35;77.56
25855;BME280;13680;49.936;11.344;2023-02-22T02:17:53;96664.78;;;4.26;78.21
25855;BME280;13680;49.936;11.344;2023-02-22T02:20:31;96666.91;;;4.24;78.00
25855;BME280;13680;49.936;11.344;2023-02-22T02:29:19;96659.97;;;4.18;78.16
25855;BME280;13680;49.936;11.344;2023-02-22T02:32:06;96655.97;;;4.15;78.35
25855;BME280;13680;49.936;11.344;2023-02-22T02:37:20;96654.06;;;4.05;78.23
25855;BME280;13680;49.936;11.344;2023-02-22T02:39:56;96656.19;;;4.03;78.21
25855;BME280;13680;49.936;11.344;2023-02-22T02:42:32;96650.06;;;4.03;78.41
25855;BME280;13680;49.936;11.344;2023-02-22T02:45:11;96650.88;;;4.03;78.28
25855;BME280;13680;49.936;11.344;2023-02-22T02:47:44;96648.69;;;3.95;78.30
25855;BME280;13680;49.936;11.344;2023-02-22T02:50:22;96644.97;;;3.91;78.74
25855;BME280;13680;49.936;11.344;2023-02-22T02:52:52;96640.44;;;3.91;78.64
25855;BME280;13680;49.936;11.344;2023-02-22T02:55:19;96638.59;;;3.92;78.47
25855;BME280;13680;49.936;11.344;2023-02-22T02:57:45;96643.09;;;3.91;78.37
25855;BME280;13680;49.936;11.344;2023-02-22T03:00:14;96640.97;;;3.88;78.61
25855;BME280;13680;49.936;11.344;2023-02-22T03:10:47;96641.16;;;3.76;78.46
25855;BME280;13680;49.936;11.344;2023-02-22T03:13:29;96636.88;;;3.70;78.26
25855;BME280;13680;49.936;11.344;2023-02-22T03:16:14;96636.88;;;3.70;78.33
25855;BME280;13680;49.936;11.344;2023-02-22T03:18:49;96634.72;;;3.67;78.36
25855;BME280;13680;49.936;11.344;2023-02-22T03:21:30;96634.72;;;3.67;78.14
25855;BME280;13680;49.936;11.344;2023-02-22T03:24:24;96634.69;;;3.62;78.15
25855;BME280;13680;49.936;11.344;2023-02-22T03:26:57;96629.66;;;3.66;78.15
25855;BME280;13680;49.936;11.344;2023-02-22T03:29:29;96630.97;;;3.63;78.16
25855;BME280;13680;49.936;11.344;2023-02-22T03:32:00;96624.59;;;3.59;78.44
25855;BME280;13680;49.936;11.344;2023-02-22T03:34:32;96623.50;;;3.55;78.62
25855;BME280;13680;49.936;11.344;2023-02-22T03:37:02;96618.19;;;3.55;78.32
25855;BME280;13680;49.936;11.344;2023-02-22T03:39:31;96622.41;;;3.51;78.98
25855;BME280;13680;49.936;11.344;2023-02-22T03:42:05;96625.59;;;3.53;79.00
25855;BME280;13680;49.936;11.344;2023-02-22T03:44:34;96625.06;;;3.56;79.19
25855;BME280;13680;49.936;11.344;2023-02-22T03:47:05;96631.19;;;3.51;78.77
25855;BME280;13680;49.936;11.344;2023-02-22T03:49:36;96629.31;;;3.52;79.13
25855;BME280;13680;49.936;11.344;2023-02-22T03:52:05;96632.00;;;3.57;78.72
25855;BME280;13680;49.936;11.344;2023-02-22T03:54:31;96621.84;;;3.43;79.62
25855;BME280;13680;49.936;11.344;2023-02-22T03:57:05;96622.38;;;3.46;79.81
25855;BME280;13680;49.936;11.344;2023-02-22T03:59:32;96626.09;;;3.44;79.43
25855;BME280;13680;49.936;11.344;2023-02-22T04:01:57;96622.34;;;3.40;79.15
25855;BME280;13680;49.936;11.344;2023-02-22T04:04:24;96621.81;;;3.38;79.27
25855;BME280;13680;49.936;11.344;2023-02-22T04:06:51;96623.69;;;3.43;79.08
25855;BME280;13680;49.936;11.344;2023-02-22T04:09:16;96620.75;;;3.39;79.55
25855;BME280;13680;49.936;11.344;2023-02-22T04:11:42;96632.94;;;3.35;79.24
25855;BME280;13680;49.936;11.344;2023-02-22T04:14:07;96623.91;;;3.36;79.20
25855;BME280;13680;49.936;11.344;2023-02-22T04:16:33;96620.47;;;3.36;79.29
25855;BME280;13680;49.936;11.344;2023-02-22T04:18:58;96619.09;;;3.28;79.02
25855;BME280;13680;49.936;11.344;2023-02-22T04:21:23;96620.16;;;3.32;79.04
25855;BME280;13680;49.936;11.344;2023-02-22T04:23:49;96623.31;;;3.29;79.03
25855;BME280;13680;49.936;11.344;2023-02-22T04:26:15;96624.91;;;3.25;79.51
25855;BME280;13680;49.936;11.344;2023-02-22T04:28:40;96622.78;;;3.27;79.57
25855;BME280;13680;49.936;11.344;2023-02-22T04:31:05;96622.25;;;3.25;79.76
25855;BME280;13680;49.936;11.344;2023-02-22T04:33:31;96625.94;;;3.24;79.66
25855;BME280;13680;49.936;11.344;2023-02-22T04:35:56;96621.16;;;3.21;79.27
25855;BME280;13680;49.936;11.344;2023-02-22T04:38:22;96625.38;;;3.17;79.26
25855;BME280;13680;49.936;11.344;2023-02-22T04:40:50;96622.16;;;3.15;79.45
25855;BME280;13680;49.936;11.344;2023-02-22T04:43:15;96618.97;;;3.13;79.24
25855;BME280;13680;49.936;11.344;2023-02-22T04:45:41;96615.75;;;3.10;79.48
25855;BME280;13680;49.936;11.344;2023-02-22T04:48:06;96611.00;;;3.13;79.32
25855;BME280;13680;49.936;11.344;2023-02-22T04:50:31;96602.75;;;3.09;79.11
25855;BME280;13680;49.936;11.344;2023-02-22T04:52:57;96613.41;;;3.14;79.02
25855;BME280;13680;49.936;11.344;2023-02-22T04:55:22;96605.69;;;3.13;79.02
25855;BME280;13680;49.936;11.344;2023-02-22T04:57:47;96601.94;;;3.08;78.96
25855;BME280;13680;49.936;11.344;2023-02-22T05:00:17;96605.41;;;3.09;79.17
25855;BME280;13680;49.936;11.344;2023-02-22T05:02:43;96611.75;;;3.08;79.16
25855;BME280;13680;49.936;11.344;2023-02-22T05:05:09;96597.66;;;3.07;79.41
25855;BME280;13680;49.936;11.344;2023-02-22T05:07:35;96598.75;;;3.06;79.66
25855;BME280;13680;49.936;11.344;2023-02-22T05:10:00;96600.28;;;3.02;79.18
25855;BME280;13680;49.936;11.344;2023-02-22T05:12:27;96606.41;;;3.03;79.23
25855;BME280;13680;49.936;11.344;2023-02-22T05:14:52;96597.09;;;3.00;79.48
25855;BME280;13680;49.936;11.344;2023-02-22T05:17:17;96599.19;;;2.98;79.16
25855;BME280;13680;49.936;11.344;2023-02-22T05:19:43;96592.53;;;2.95;79.07
25855;BME280;13680;49.936;11.344;2023-02-22T05:22:08;96599.16;;;2.93;79.21
25855;BME280;13680;49.936;11.344;2023-02-22T05:24:33;96595.72;;;2.92;78.89
25855;BME280;13680;49.936;11.344;2023-02-22T05:26:59;96594.31;;;2.85;78.76
25855;BME280;13680;49.936;11.344;2023-02-22T05:29:24;96596.97;;;2.85;78.74
25855;BME280;13680;49.936;11.344;2023-02-22T05:31:50;96596.94;;;2.80;79.06
25855;BME280;13680;49.936;11.344;2023-02-22T05:34:15;96604.88;;;2.74;78.82
25855;BME280;13680;49.936;11.344;2023-02-22T05:36:40;96598.47;;;2.75;78.57
25855;BME280;13680;49.936;11.344;2023-02-22T05:39:06;96603.50;;;2.72;79.26
25855;BME280;13680;49.936;11.344;2023-02-22T05:41:31;96597.13;;;2.73;79.34
25855;BME280;13680;49.936;11.344;2023-02-22T05:43:57;96595.28;;;2.73;78.79
25855;BME280;13680;49.936;11.344;2023-02-22T05:46:22;96598.44;;;2.70;78.75
25855;BME280;13680;49.936;11.344;2023-02-22T05:48:47;96595.00;;;2.70;78.84
25855;BME280;13680;49.936;11.344;2023-02-22T05:51:13;96597.34;;;2.66;78.86
25855;BME280;13680;49.936;11.344;2023-02-22T05:53:38;96589.63;;;2.65;79.45
25855;BME280;13680;49.936;11.344;2023-02-22T05:56:04;96589.13;;;2.68;78.87
25855;BME280;13680;49.936;11.344;2023-02-22T05:58:29;96590.44;;;2.65;78.69
25855;BME280;13680;49.936;11.344;2023-02-22T06:00:54;96588.84;;;2.64;78.69
25855;BME280;13680;49.936;11.344;2023-02-22T06:03:20;96585.13;;;2.65;78.83
25855;BME280;13680;49.936;11.344;2023-02-22T06:05:45;96585.13;;;2.65;79.15
25855;BME280;13680;49.936;11.344;2023-02-22T06:08:11;96597.03;;;2.62;78.87
25855;BME280;13680;49.936;11.344;2023-02-22T06:10:36;96588.28;;;2.62;78.91
25855;BME280;13680;49.936;11.344;2023-02-22T06:13:03;96591.50;;;2.64;78.80
25855;BME280;13680;49.936;11.344;2023-02-22T06:15:28;96585.63;;;2.62;79.44
25855;BME280;13680;49.936;11.344;2023-02-22T06:17:55;96589.84;;;2.58;79.27
25855;BME280;13680;49.936;11.344;2023-02-22T06:20:22;96589.84;;;2.58;79.47
25855;BME280;13680;49.936;11.344;2023-02-22T06:22:52;96594.09;;;2.59;79.44
25855;BME280;13680;49.936;11.344;2023-02-22T06:25:20;96590.94;;;2.62;79.93
25855;BME280;13680;49.936;11.344;2023-02-22T06:27:46;96587.25;;;2.63;79.77
25855;BME280;13680;49.936;11.344;2023-02-22T06:30:14;96591.25;;;2.66;79.87
25855;BME280;13680;49.936;11.344;2023-02-22T06:32:40;96591.44;;;2.59;79.67
25855;BME280;13680;49.936;11.344;2023-02-22T06:35:05;96591.00;;;2.67;79.85
25855;BME280;13680;49.936;11.344;2023-02-22T06:37:31;96583.06;;;2.72;79.40
25855;BME280;13680;49.936;11.344;2023-02-22T06:39:56;96590.25;;;2.72;79.35
25855;BME280;13680;49.936;11.344;2023-02-22T06:42:22;96586.56;;;2.78;79.64
25855;BME280;13680;49.936;11.344;2023-02-22T06:44:48;96591.41;;;2.86;79.25
25855;BME280;13680;49.936;11.344;2023-02-22T06:47:13;96586.09;;;2.86;79.83
25855;BME280;13680;49.936;11.344;2023-02-22T06:49:38;96586.13;;;2.91;79.58
25855;BME280;13680;49.936;11.344;2023-02-22T06:52:05;96591.16;;;2.88;79.95
25855;BME280;13680;49.936;11.344;2023-02-22T06:54:31;96592.25;;;2.92;80.29
25855;BME280;13680;49.936;11.344;2023-02-22T06:56:56;96582.78;;;3.01;79.93
25855;BME280;13680;49.936;11.344;2023-02-22T06:59:21;96597.91;;;3.06;79.83
25855;BME280;13680;49.936;11.344;2023-02-22T07:01:48;96593.47;;;3.11;79.82
25855;BME280;13680;49.936;11.344;2023-02-22T07:04:13;96598.53;;;3.18;79.81
25855;BME280;13680;49.936;11.344;2023-02-22T07:06:44;96596.44;;;3.20;80.21
25855;BME280;13680;49.936;11.344;2023-02-22T07:09:11;96595.16;;;3.28;80.21
25855;BME280;13680;49.936;11.344;2023-02-22T07:11:38;96597.31;;;3.36;79.96
25855;BME280;13680;49.936;11.344;2023-02-22T07:14:03;96601.06;;;3.40;79.78
25855;BME280;13680;49.936;11.344;2023-02-22T07:16:29;96604.06;;;3.49;79.66
25855;BME280;13680;49.936;11.344;2023-02-22T07:18:54;96602.72;;;3.52;79.57
25855;BME280;13680;49.936;11.344;2023-02-22T07:21:19;96606.47;;;3.56;79.23
25855;BME280;13680;49.936;11.344;2023-02-22T07:23:53;96608.91;;;3.63;79.21
25855;BME280;13680;49.936;11.344;2023-02-22T07:26:18;96601.47;;;3.65;79.25
25855;BME280;13680;49.936;11.344;2023-02-22T07:28:44;96602.56;;;3.69;79.04
25855;BME280;13680;49.936;11.344;2023-02-22T07:31:09;96594.34;;;3.75;79.22
25855;BME280;13680;49.936;11.344;2023-02-22T07:33:35;96595.44;;;3.80;79.28
25855;BME280;13680;49.936;11.344;2023-02-22T07:36:00;96597.03;;;3.81;79.08
25855;BME280;13680;49.936;11.344;2023-02-22T07:38:25;96591.50;;;3.92;79.21
25855;BME280;13680;49.936;11.344;2023-02-22T07:40:51;96589.13;;;3.96;79.61
25855;BME280;13680;49.936;11.344;2023-02-22T07:43:22;96589.44;;;4.10;79.17
25855;BME280;13680;49.936;11.344;2023-02-22T07:45:49;96588.66;;;4.15;79.13
25855;BME280;13680;49.936;11.344;2023-02-22T07:48:16;96598.53;;;4.30;79.42
25855;BME280;13680;49.936;11.344;2023-02-22T07:50:42;96588.16;;;4.38;78.81
25855;BME280;13680;49.936;11.344;2023-02-22T07:53:16;96594.31;;;4.44;79.02
25855;BME280;13680;49.936;11.344;2023-02-22T07:55:42;96587.69;;;4.62;79.27
25855;BME280;13680;49.936;11.344;2023-02-22T07:58:08;96598.34;;;4.67;79.40
25855;BME280;13680;49.936;11.344;2023-02-22T08:00:36;96592.19;;;4.77;79.10
25855;BME280;13680;49.936;11.344;2023-02-22T08:03:04;96592.47;;;4.86;79.68
25855;BME280;13680;49.936;11.344;2023-02-22T08:05:31;96590.63;;;5.02;79.66
25855;BME280;13680;49.936;11.344;2023-02-22T08:07:57;96588.72;;;5.07;79.72
25855;BME280;13680;49.936;11.344;2023-02-22T08:10:23;96590.06;;;5.15;80.13
25855;BME280;13680;49.936;11.344;2023-02-22T08:12:50;96585.53;;;5.16;80.31
25855;BME280;13680;49.936;11.344;2023-02-22T08:15:22;96586.06;;;5.38;79.79
25855;BME280;13680;49.936;11.344;2023-02-22T08:17:48;96576.13;;;5.54;79.88
25855;BME280;13680;49.936;11.344;2023-02-22T08:20:14;96577.69;;;5.66;79.36
25855;BME280;13680;49.936;11.344;2023-02-22T08:22:42;96581.41;;;5.75;79.58
25855;BME280;13680;49.936;11.344;2023-02-22T08:25:08;96580.00;;;5.93;79.41
25855;BME280;13680;49.936;11.344;2023-02-22T08:27:34;96582.66;;;6.03;79.31
25855;BME280;13680;49.936;11.344;2023-02-22T08:29:59;96583.41;;;6.14;79.69
25855;BME280;13680;49.936;11.344;2023-02-22T08:32:24;96584.09;;;6.35;79.63
25855;BME280;13680;49.936;11.344;2023-02-22T08:34:50;96582.44;;;6.45;79.38
25855;BME280;13680;49.936;11.344;2023-02-22T08:37:16;96577.81;;;6.55;79.55
25855;BME280;13680;49.936;11.344;2023-02-22T08:39:42;96582.56;;;6.69;79.61
25855;BME280;13680;49.936;11.344;2023-02-22T08:42:08;96580.09;;;6.78;80.16
25855;BME280;13680;49.936;11.344;2023-02-22T08:44:36;96579.38;;;6.96;79.81
25855;BME280;13680;49.936;11.344;2023-02-22T08:47:01;96577.16;;;7.09;79.81
25855;BME280;13680;49.936;11.344;2023-02-22T08:49:27;96578.47;;;7.11;79.68
25855;BME280;13680;49.936;11.344;2023-02-22T08:51:52;96578.03;;;7.28;79.46
25855;BME280;13680;49.936;11.344;2023-02-22T08:54:18;96579.72;;;7.48;79.40
25855;BME280;13680;49.936;11.344;2023-02-22T08:56:43;96575.50;;;7.66;79.21
25855;BME280;13680;49.936;11.344;2023-02-22T08:59:09;96575.56;;;7.85;78.88
25855;BME280;13680;49.936;11.344;2023-02-22T09:01:34;96573.63;;;7.91;78.76
25855;BME280;13680;49.936;11.344;2023-02-22T09:04:00;96574.63;;;8.19;78.49
25855;BME280;13680;49.936;11.344;2023-02-22T09:06:27;96568.19;;;8.40;77.89
25855;BME280;13680;49.936;11.344;2023-02-22T09:08:52;96575.16;;;8.41;77.41
25855;BME280;13680;49.936;11.344;2023-02-22T09:11:17;96568.28;;;8.54;77.60
25855;BME280;13680;49.936;11.344;2023-02-22T09:13:43;96568.78;;;8.75;76.83
25855;BME280;13680;49.936;11.344;2023-02-22T09:16:08;96575.34;;;8.82;76.97
25855;BME280;13680;49.936;11.344;2023-02-22T09:18:34;96572.72;;;8.96;76.94
25855;BME280;13680;49.936;11.344;2023-02-22T09:21:01;96572.25;;;9.08;76.25
25855;BME280;13680;49.936;11.344;2023-02-22T09:23:26;96569.59;;;9.22;75.87
25855;BME280;13680;49.936;11.344;2023-02-22T09:25:51;96566.94;;;9.36;76.12
25855;BME280;13680;49.936;11.344;2023-02-22T09:28:17;96558.63;;;9.52;75.27
25855;BME280;13680;49.936;11.344;2023-02-22T09:30:42;96565.59;;;9.66;76.20
25855;BME280;13680;49.936;11.344;2023-02-22T09:33:11;96553.44;;;9.97;75.51
25855;BME280;13680;49.936;11.344;2023-02-22T09:35:38;96562.69;;;10.19;75.20
25855;BME280;13680;49.936;11.344;2023-02-22T09:38:07;96551.97;;;10.55;74.63
25855;BME280;13680;49.936;11.344;2023-02-22T09:40:37;96556.41;;;10.60;74.31
25855;BME280;13680;49.936;11.344;2023-02-22T09:49:17;96553.78;;;11.37;73.49
25855;BME280;13680;49.936;11.344;2023-02-22T09:52:46;96550.88;;;11.65;72.83
25855;BME280;13680;49.936;11.344;2023-02-22T09:54:44;96548.09;;;11.87;72.29
25855;BME280;13680;49.936;11.344;2023-02-22T09:57:22;96548.97;;;12.14;71.00
25855;BME280;13680;49.936;11.344;2023-02-22T09:59:59;96549.50;;;12.34;70.09
25855;BME280;13680;49.936;11.344;2023-02-22T10:02:35;96543.16;;;12.47;69.54
25855;BME280;13680;49.936;11.344;2023-02-22T10:05:05;96543.31;;;12.77;69.50
25855;BME280;13680;49.936;11.344;2023-02-22T10:07:37;96543.59;;;13.02;69.17
25855;BME280;13680;49.936;11.344;2023-02-22T10:10:05;96553.53;;;13.27;68.03
25855;BME280;13680;49.936;11.344;2023-02-22T10:15:35;96546.78;;;13.69;65.84
25855;BME280;13680;49.936;11.344;2023-02-22T10:21:00;96534.03;;;13.99;65.79
25855;BME280;13680;49.936;11.344;2023-02-22T10:26:31;96527.16;;;14.32;64.50
25855;BME280;13680;49.936;11.344;2023-02-22T10:31:45;96519.97;;;14.57;63.63
25855;BME280;13680;49.936;11.344;2023-02-22T10:34:16;96518.16;;;15.03;60.96
25855;BME280;13680;49.936;11.344;2023-02-22T10:36:47;96521.63;;;14.92;61.20
25855;BME280;13680;49.936;11.344;2023-02-22T10:39:32;96519.44;;;15.31;60.41
25855;BME280;13680;49.936;11.344;2023-02-22T10:42:06;96520.09;;;15.15;61.44
25855;BME280;13680;49.936;11.344;2023-02-22T10:44:34;96521.50;;;15.34;60.29
25855;BME280;13680;49.936;11.344;2023-02-22T10:47:02;96518.72;;;15.09;59.52
25855;BME280;13680;49.936;11.344;2023-02-22T10:49:35;96515.63;;;15.44;58.46
25855;BME280;13680;49.936;11.344;2023-02-22T10:52:05;96512.69;;;15.37;59.33
25855;BME280;13680;49.936;11.344;2023-02-22T10:54:39;96514.06;;;15.55;57.69
25855;BME280;13680;49.936;11.344;2023-02-22T10:57:05;96507.50;;;15.44;58.37
25855;BME280;13680;49.936;11.344;2023-02-22T10:59:36;96503.91;;;15.65;58.26
25855;BME280;13680;49.936;11.344;2023-02-22T11:02:23;96509.31;;;15.65;57.20
25855;BME280;13680;49.936;11.344;2023-02-22T11:04:51;96513.03;;;15.35;58.79
25855;BME280;13680;49.936;11.344;2023-02-22T11:07:30;96500.66;;;15.96;57.91
25855;BME280;13680;49.936;11.344;2023-02-22T11:10:29;96497.25;;;16.52;55.85
25855;BME280;13680;49.936;11.344;2023-02-22T11:12:55;96493.59;;;16.89;53.87
25855;BME280;13680;49.936;11.344;2023-02-22T11:17:53;96479.28;;;17.05;54.80
25855;BME280;13680;49.936;11.344;2023-02-22T11:20:22;96484.63;;;16.73;54.39
25855;BME280;13680;49.936;11.344;2023-02-22T11:22:51;96480.72;;;16.29;56.32
25855;BME280;13680;49.936;11.344;2023-02-22T11:25:21;96471.72;;;16.98;54.90
25855;BME280;13680;49.936;11.344;2023-02-22T11:27:50;96470.00;;;17.06;54.45
25855;BME280;13680;49.936;11.344;2023-02-22T11:30:21;96469.16;;;17.49;52.98
25855;BME280;13680;49.936;11.344;2023-02-22T11:32:59;96456.31;;;17.50;53.15
25855;BME280;13680;49.936;11.344;2023-02-22T11:37:53;96450.25;;;17.89;53.72
25855;BME280;13680;49.936;11.344;2023-02-22T11:40:20;96440.72;;;18.34;50.54
25855;BME280;13680;49.936;11.344;2023-02-22T11:42:48;96437.41;;;18.44;50.53
25855;BME280;13680;49.936;11.344;2023-02-22T11:45:18;96429.56;;;18.82;48.70
25855;BME280;13680;49.936;11.344;2023-02-22T11:48:00;96429.00;;;18.92;49.17
25855;BME280;13680;49.936;11.344;2023-02-22T11:58:46;96410.69;;;19.12;47.86
25855;BME280;13680;49.936;11.344;2023-02-22T12:15:11;96409.69;;;20.69;43.59
25855;BME280;13680;49.936;11.344;2023-02-22T12:17:48;96394.75;;;20.97;42.12
25855;BME280;13680;49.936;11.344;2023-02-22T12:20:21;96398.63;;;20.92;43.71
25855;BME280;13680;49.936;11.344;2023-02-22T12:23:13;96392.63;;;20.76;43.06
25855;BME280;13680;49.936;11.344;2023-02-22T12:26:12;96389.94;;;21.28;42.52
25855;BME280;13680;49.936;11.344;2023-02-22T12:28:38;96388.13;;;20.98;42.57
25855;BME280;13680;49.936;11.344;2023-02-22T12:33:47;96386.59;;;20.63;44.21
25855;BME280;13680;49.936;11.344;2023-02-22T12:36:17;96386.69;;;21.12;43.65
25855;BME280;13680;49.936;11.344;2023-02-22T12:38:49;96395.09;;;20.92;43.14
25855;BME280;13680;49.936;11.344;2023-02-22T12:41:37;96393.94;;;20.59;44.16
25855;BME280;13680;49.936;11.344;2023-02-22T12:44:14;96393.59;;;20.98;43.13
25855;BME280;13680;49.936;11.344;2023-02-22T12:46:49;96391.22;;;19.91;45.01
25855;BME280;13680;49.936;11.344;2023-02-22T12:50:11;96389.50;;;20.09;44.05
25855;BME280;13680;49.936;11.344;2023-02-22T12:52:50;96383.03;;;20.59;43.80
25855;BME280;13680;49.936;11.344;2023-02-22T12:55:22;96385.94;;;20.73;42.80
25855;BME280;13680;49.936;11.344;2023-02-22T12:58:24;96384.78;;;20.40;44.01
25855;BME280;13680;49.936;11.344;2023-02-22T13:01:12;96383.06;;;20.25;43.94
25855;BME280;13680;49.936;11.344;2023-02-22T13:03:40;96374.25;;;20.76;43.75
25855;BME280;13680;49.936;11.344;2023-02-22T13:09:18;96373.75;;;21.08;42.08
25855;BME280;13680;49.936;11.344;2023-02-22T13:11:58;96373.53;;;21.32;41.97
25855;BME280;13680;49.936;11.344;2023-02-22T13:14:36;96365.59;;;21.64;40.85
25855;BME280;13680;49.936;11.344;2023-02-22T13:17:15;96357.38;;;22.49;40.58
25855;BME280;13680;49.936;11.344;2023-02-22T13:22:40;96348.44;;;23.57;36.53
25855;BME280;13680;49.936;11.344;2023-02-22T13:30:17;96337.06;;;22.57;39.08
25855;BME280;13680;49.936;11.344;2023-02-22T13:32:59;96343.91;;;22.07;40.40
25855;BME280;13680;49.936;11.344;2023-02-22T13:35:51;96338.97;;;22.53;39.78
25855;BME280;13680;49.936;11.344;2023-02-22T13:38:38;96342.13;;;22.55;39.38
25855;BME280;13680;49.936;11.344;2023-02-22T13:41:18;96336.78;;;21.85;40.63
25855;BME280;13680;49.936;11.344;2023-02-22T13:50:02;96330.00;;;22.56;38.47
25855;BME280;13680;49.936;11.344;2023-02-22T13:52:37;96332.78;;;22.85;37.97
25855;BME280;13680;49.936;11.344;2023-02-22T13:55:26;96338.63;;;22.65;37.95
25855;BME280;13680;49.936;11.344;2023-02-22T13:58:04;96341.31;;;22.36;38.56
25855;BME280;13680;49.936;11.344;2023-02-22T14:13:10;96327.69;;;23.23;36.36
25855;BME280;13680;49.936;11.344;2023-02-22T14:18:25;96331.19;;;23.49;36.72
25855;BME280;13680;49.936;11.344;2023-02-22T14:28:43;96332.00;;;23.31;36.17
25855;BME280;13680;49.936;11.344;2023-02-22T14:31:17;96323.34;;;22.61;36.56
25855;BME280;13680;49.936;11.344;2023-02-22T14:36:58;96326.34;;;21.38;39.80
25855;BME280;13680;49.936;11.344;2023-02-22T14:42:03;96324.19;;;21.14;40.15
25855;BME280;13680;49.936;11.344;2023-02-22T14:44:37;96325.28;;;20.57;41.46
25855;BME280;13680;49.936;11.344;2023-02-22T14:47:06;96324.47;;;20.53;41.56
25855;BME280;13680;49.936;11.344;2023-02-22T14:49:41;96326.88;;;20.24;42.39
25855;BME280;13680;49.936;11.344;2023-02-22T14:52:18;96314.94;;;20.02;42.62
25855;BME280;13680;49.936;11.344;2023-02-22T14:54:55;96322.31;;;20.01;42.30
25855;BME280;13680;49.936;11.344;2023-02-22T14:57:37;96322.53;;;19.85;43.37
25855;BME280;13680;49.936;11.344;2023-02-22T15:02:46;96321.69;;;19.54;43.85
25855;BME280;13680;49.936;11.344;2023-02-22T15:05:16;96321.56;;;19.43;44.37
25855;BME280;13680;49.936;11.344;2023-02-22T15:08:02;96315.91;;;19.29;44.33
25855;BME280;13680;49.936;11.344;2023-02-22T15:10:50;96318.72;;;19.09;45.27